createdAt,value
2022-08-11T00:01:25.333Z,28.04
2022-08-11T00:03:56.873Z,28.04
2022-08-11T00:06:31.721Z,28.02
2022-08-11T00:08:59.605Z,28.06
2022-08-11T00:11:58.596Z,28.02
2022-08-11T00:14:37.245Z,28.03
2022-08-11T00:17:09.216Z,28.00
2022-08-11T00:20:12.793Z,27.99
2022-08-11T00:22:28.641Z,27.98
2022-08-11T00:25:01.590Z,28.01
2022-08-11T00:27:34.798Z,27.96
2022-08-11T00:30:02.697Z,27.97
2022-08-11T00:32:30.843Z,27.98
2022-08-11T00:35:54.742Z,27.98
2022-08-11T00:37:50.732Z,27.93
2022-08-11T00:40:25.897Z,27.88
2022-08-11T00:43:24.472Z,27.90
2022-08-11T00:46:11.014Z,27.82
2022-08-11T00:49:09.509Z,27.78
2022-08-11T00:52:13.308Z,27.77
2022-08-11T00:55:17.589Z,27.72
2022-08-11T00:58:05.204Z,27.74
2022-08-11T01:01:05.844Z,27.68
2022-08-11T01:04:11.061Z,27.68
2022-08-11T01:06:50.349Z,27.74
2022-08-11T01:09:49.987Z,27.73
2022-08-11T01:12:41.903Z,27.74
2022-08-11T01:15:28.941Z,27.73
2022-08-11T01:18:31.458Z,27.66
2022-08-11T01:21:04.530Z,27.65
2022-08-11T01:23:50.183Z,27.67
2022-08-11T01:26:46.898Z,27.64
2022-08-11T01:29:33.687Z,27.66
2022-08-11T01:32:38.469Z,27.65
2022-08-11T01:35:44.204Z,27.63
2022-08-11T01:38:48.257Z,27.61
2022-08-11T01:42:24.890Z,27.61
2022-08-11T01:45:29.415Z,27.61
2022-08-11T01:48:42.832Z,27.62
2022-08-11T01:51:45.112Z,27.62
2022-08-11T01:54:18.383Z,27.64
2022-08-11T01:57:29.933Z,27.62
2022-08-11T02:00:19.942Z,27.60
2022-08-11T02:02:54.376Z,27.62
2022-08-11T02:05:32.124Z,27.59
2022-08-11T02:08:33.395Z,27.59
2022-08-11T02:11:28.655Z,27.61
2022-08-11T02:15:04.659Z,27.59
2022-08-11T02:18:04.230Z,27.56
2022-08-11T02:21:21.344Z,27.46
2022-08-11T02:24:09.390Z,27.54
2022-08-11T02:26:41.975Z,27.53
2022-08-11T02:29:21.238Z,27.57
2022-08-11T02:32:33.774Z,27.58
2022-08-11T02:35:19.264Z,27.58
2022-08-11T02:37:50.765Z,27.53
2022-08-11T02:40:28.175Z,27.53
2022-08-11T02:43:06.370Z,27.51
2022-08-11T02:45:48.445Z,27.52
2022-08-11T02:49:11.921Z,27.52
2022-08-11T02:52:14.198Z,27.47
2022-08-11T02:55:09.513Z,27.47
2022-08-11T02:58:26.844Z,27.43
2022-08-11T03:01:03.740Z,27.43
2022-08-11T03:03:38.476Z,27.41
2022-08-11T03:06:42.070Z,27.45
2022-08-11T03:09:38.193Z,27.41
2022-08-11T03:12:36.912Z,27.41
2022-08-11T03:15:36.596Z,27.43
2022-08-11T03:18:41.005Z,27.40
2022-08-11T03:21:20.901Z,27.34
2022-08-11T03:24:19.421Z,27.33
2022-08-11T03:27:11.301Z,27.26
2022-08-11T03:30:19.742Z,27.31
2022-08-11T03:33:33.161Z,27.33
2022-08-11T03:36:15.853Z,27.33
2022-08-11T03:39:05.407Z,27.34
2022-08-11T03:42:06.727Z,27.33
2022-08-11T03:44:48.287Z,27.33
2022-08-11T03:47:55.319Z,27.30
2022-08-11T03:50:28.538Z,27.32
2022-08-11T03:52:58.870Z,27.35
2022-08-11T03:56:00.702Z,27.35
2022-08-11T03:58:55.874Z,27.36
2022-08-11T04:01:44.718Z,27.35
2022-08-11T04:04:11.905Z,27.34
2022-08-11T04:07:17.553Z,27.34
2022-08-11T04:10:07.637Z,27.32
2022-08-11T04:13:15.982Z,27.27
2022-08-11T04:16:12.845Z,27.25
2022-08-11T04:19:09.146Z,27.26
2022-08-11T04:22:12.682Z,27.27
2022-08-11T04:25:16.455Z,27.26
2022-08-11T04:28:01.584Z,27.28
2022-08-11T04:30:58.228Z,27.31
2022-08-11T04:34:08.352Z,27.34
2022-08-11T04:37:08.913Z,27.37
2022-08-11T04:40:03.542Z,27.41
2022-08-11T04:43:11.240Z,27.38
2022-08-11T04:45:48.194Z,27.44
2022-08-11T04:49:02.536Z,27.40
2022-08-11T04:52:03.489Z,27.42
2022-08-11T04:55:20.294Z,27.44
2022-08-11T04:58:18.250Z,27.48
2022-08-11T05:01:31.807Z,27.40
2022-08-11T05:04:33.636Z,27.47
2022-08-11T05:07:40.871Z,27.47
2022-08-11T05:10:28.873Z,27.33
2022-08-11T05:13:21.284Z,27.17
2022-08-11T05:16:20.735Z,27.29
2022-08-11T05:19:10.348Z,27.34
2022-08-11T05:22:00.113Z,27.38
2022-08-11T05:25:07.883Z,27.38
2022-08-11T05:28:11.865Z,27.39
2022-08-11T05:31:01.892Z,27.43
2022-08-11T05:34:04.115Z,27.46
2022-08-11T05:36:37.533Z,27.45
2022-08-11T05:39:33.942Z,27.44
2022-08-11T05:42:29.967Z,27.46
2022-08-11T05:45:58.637Z,27.47
2022-08-11T05:48:38.021Z,27.49
2022-08-11T05:51:29.904Z,27.50
2022-08-11T05:54:28.775Z,27.54
2022-08-11T05:57:02.339Z,27.60
2022-08-11T05:59:31.659Z,27.65
2022-08-11T06:02:07.609Z,27.70
2022-08-11T06:04:35.280Z,27.67
2022-08-11T06:07:06.643Z,27.71
2022-08-11T06:09:39.448Z,27.72
2022-08-11T06:12:09.301Z,27.76
2022-08-11T06:14:43.659Z,27.49
2022-08-11T06:17:11.412Z,27.32
2022-08-11T06:19:41.522Z,27.43
2022-08-11T06:22:12.768Z,27.59
2022-08-11T06:24:53.265Z,27.70
2022-08-11T06:27:25.525Z,27.64
2022-08-11T06:29:55.842Z,27.72
2022-08-11T06:32:36.101Z,27.73
2022-08-11T06:35:37.955Z,27.80
2022-08-11T06:38:30.886Z,27.82
2022-08-11T06:41:32.788Z,27.82
2022-08-11T06:44:13.280Z,27.86
2022-08-11T06:46:51.064Z,27.67
2022-08-11T06:49:40.263Z,27.63
2022-08-11T06:52:45.083Z,27.61
2022-08-11T06:55:06.527Z,27.67
2022-08-11T06:57:58.761Z,27.52
2022-08-11T07:00:29.531Z,27.43
2022-08-11T07:03:11.772Z,27.43
2022-08-11T07:05:51.151Z,27.30
2022-08-11T07:12:20.303Z,27.39
2022-08-11T07:15:10.661Z,27.48
2022-08-11T07:18:11.684Z,27.59
2022-08-11T07:21:01.888Z,27.54
2022-08-11T07:23:53.354Z,27.54
2022-08-11T07:26:42.953Z,27.41
2022-08-11T07:29:15.114Z,27.36
2022-08-11T07:31:46.777Z,27.44
2022-08-11T07:34:28.183Z,27.54
2022-08-11T07:36:58.606Z,27.65
2022-08-11T07:39:33.421Z,27.72
2022-08-11T07:42:07.071Z,27.75
2022-08-11T07:44:55.777Z,27.72
2022-08-11T07:47:42.687Z,27.76
2022-08-11T07:50:29.761Z,27.84
2022-08-11T07:53:00.288Z,27.85
2022-08-11T07:55:50.820Z,27.88
2022-08-11T07:58:40.342Z,27.95
2022-08-11T08:01:38.054Z,27.84
2022-08-11T08:04:26.401Z,27.78
2022-08-11T08:07:13.084Z,27.69
2022-08-11T08:10:01.119Z,27.70
2022-08-11T08:12:48.495Z,27.70
2022-08-11T08:15:35.773Z,27.77
2022-08-11T08:18:08.948Z,27.85
2022-08-11T08:20:55.140Z,27.87
2022-08-11T08:23:35.295Z,27.78
2022-08-11T08:26:31.319Z,27.78
2022-08-11T08:29:22.612Z,27.83
2022-08-11T08:31:51.138Z,27.90
2022-08-11T08:34:19.356Z,27.94
2022-08-11T08:36:48.409Z,27.97
2022-08-11T08:39:20.739Z,28.05
2022-08-11T08:41:57.641Z,27.83
2022-08-11T08:44:43.479Z,27.33
2022-08-11T08:47:42.513Z,27.48
2022-08-11T08:50:10.182Z,27.60
2022-08-11T08:52:56.378Z,27.67
2022-08-11T08:55:24.249Z,27.63
2022-08-11T08:57:56.323Z,27.53
2022-08-11T09:00:24.242Z,27.36
2022-08-11T09:02:52.549Z,27.49
2022-08-11T09:05:21.285Z,27.72
2022-08-11T09:07:53.853Z,27.91
2022-08-11T09:10:21.841Z,28.10
2022-08-11T09:12:50.510Z,28.08
2022-08-11T09:15:20.507Z,28.05
2022-08-11T09:17:53.792Z,28.11
2022-08-11T09:20:25.977Z,28.17
2022-08-11T09:26:30.759Z,27.73
2022-08-11T09:29:00.413Z,27.74
2022-08-11T09:31:37.023Z,27.88
2022-08-11T09:34:07.289Z,28.11
2022-08-11T09:36:53.604Z,27.80
2022-08-11T09:39:39.741Z,27.71
2022-08-11T09:42:23.652Z,28.01
2022-08-11T09:44:53.908Z,28.16
2022-08-11T09:47:30.557Z,28.34
2022-08-11T09:50:01.622Z,28.55
2022-08-11T09:52:32.594Z,28.56
2022-08-11T09:55:01.263Z,28.64
2022-08-11T09:57:48.030Z,28.76
2022-08-11T10:00:15.814Z,28.78
2022-08-11T10:02:46.241Z,28.84
2022-08-11T10:05:37.481Z,29.03
2022-08-11T10:08:07.499Z,29.13
2022-08-11T10:10:38.211Z,29.08
2022-08-11T10:14:30.260Z,28.80
2022-08-11T10:16:15.268Z,28.57
2022-08-11T10:18:53.191Z,28.54
2022-08-11T10:21:40.779Z,28.72
2022-08-11T10:24:28.413Z,28.72
2022-08-11T10:27:02.927Z,28.77
2022-08-11T10:29:56.607Z,28.95
2022-08-11T10:32:52.790Z,29.13
2022-08-11T10:35:30.946Z,29.12
2022-08-11T10:38:09.051Z,29.23
2022-08-11T10:40:39.995Z,29.40
2022-08-11T10:43:14.494Z,29.37
2022-08-11T10:46:27.049Z,29.44
2022-08-11T10:48:59.345Z,29.67
2022-08-11T10:51:51.190Z,29.82
2022-08-11T10:54:40.076Z,30.01
2022-08-11T10:57:27.811Z,30.14
2022-08-11T10:59:57.057Z,30.20
2022-08-11T11:02:27.476Z,29.90
2022-08-11T11:05:11.875Z,29.99
2022-08-11T11:07:56.540Z,30.06
2022-08-11T11:10:23.967Z,30.16
2022-08-11T11:13:14.301Z,30.29
2022-08-11T11:16:03.444Z,30.44
2022-08-11T11:18:37.505Z,30.59
2022-08-11T11:21:10.527Z,30.64
2022-08-11T11:24:12.160Z,30.58
2022-08-11T11:27:00.946Z,30.71
2022-08-11T11:29:46.753Z,30.89
2022-08-11T11:32:20.584Z,31.06
2022-08-11T11:35:12.285Z,31.14
2022-08-11T11:37:41.109Z,31.15
2022-08-11T11:40:31.945Z,31.24
2022-08-11T11:43:00.500Z,31.31
2022-08-11T11:45:28.271Z,31.26
2022-08-11T11:47:59.608Z,31.30
2022-08-11T11:50:34.933Z,31.34
2022-08-11T11:53:08.298Z,31.42
2022-08-11T11:55:36.842Z,31.47
2022-08-11T11:58:23.681Z,31.56
2022-08-11T12:01:12.066Z,31.63
2022-08-11T12:03:40.489Z,31.71
2022-08-11T12:06:09.772Z,31.82
2022-08-11T12:08:38.497Z,31.75
2022-08-11T12:11:27.591Z,31.91
2022-08-11T12:13:57.433Z,31.74
2022-08-11T12:16:34.220Z,31.47
2022-08-11T12:19:11.924Z,31.52
2022-08-11T12:22:00.956Z,31.33
2022-08-11T12:27:38.903Z,31.42
2022-08-11T12:30:08.663Z,31.62
2022-08-11T12:32:38.165Z,31.75
2022-08-11T12:35:06.848Z,31.85
2022-08-11T12:37:41.189Z,31.91
2022-08-11T12:40:42.518Z,32.05
2022-08-11T12:43:40.596Z,32.22
2022-08-11T12:46:11.716Z,32.26
2022-08-11T12:49:04.422Z,32.27
2022-08-11T12:52:15.041Z,31.97
2022-08-11T12:54:52.464Z,31.50
2022-08-11T12:57:59.581Z,31.34
2022-08-11T13:00:49.213Z,31.39
2022-08-11T13:03:39.091Z,31.24
2022-08-11T13:06:07.986Z,31.34
2022-08-11T13:08:38.457Z,31.49
2022-08-11T13:11:57.017Z,31.62
2022-08-11T13:14:15.251Z,31.70
2022-08-11T13:17:03.842Z,31.76
2022-08-11T13:19:31.628Z,31.93
2022-08-11T13:22:00.892Z,32.04
2022-08-11T13:24:29.332Z,32.12
2022-08-11T13:26:58.220Z,32.07
2022-08-11T13:29:28.114Z,32.08
2022-08-11T13:32:00.652Z,31.97
2022-08-11T13:34:33.172Z,32.10
2022-08-11T13:37:02.550Z,32.21
2022-08-11T13:39:32.239Z,32.17
2022-08-11T13:42:01.547Z,32.33
2022-08-11T13:44:31.615Z,32.49
2022-08-11T13:47:04.327Z,32.37
2022-08-11T13:49:35.283Z,32.29
2022-08-11T13:52:03.900Z,32.21
2022-08-11T13:54:35.177Z,32.22
2022-08-11T13:57:08.197Z,32.22
2022-08-11T13:59:51.806Z,32.16
2022-08-11T14:02:42.345Z,32.03
2022-08-11T14:05:16.205Z,31.98
2022-08-11T14:07:59.236Z,31.93
2022-08-11T14:10:30.438Z,31.85
2022-08-11T14:13:41.323Z,31.53
2022-08-11T14:16:32.262Z,31.53
2022-08-11T14:19:05.573Z,31.50
2022-08-11T14:21:55.063Z,31.06
2022-08-11T14:24:23.221Z,30.89
2022-08-11T14:26:51.815Z,30.86
2022-08-11T14:29:22.680Z,30.91
2022-08-11T14:32:01.887Z,30.83
2022-08-11T14:34:32.200Z,30.87
2022-08-11T14:37:08.347Z,30.88
2022-08-11T14:39:41.416Z,30.80
2022-08-11T14:42:29.485Z,30.84
2022-08-11T14:45:18.696Z,30.83
2022-08-11T14:47:50.336Z,30.90
2022-08-11T14:50:23.341Z,30.90
2022-08-11T14:52:51.893Z,30.94
2022-08-11T14:55:40.721Z,30.96
2022-08-11T14:58:14.412Z,31.08
2022-08-11T15:00:43.231Z,31.06
2022-08-11T15:03:15.520Z,31.01
2022-08-11T15:05:56.075Z,30.96
2022-08-11T15:08:52.312Z,30.79
2022-08-11T15:11:41.012Z,30.81
2022-08-11T15:14:10.606Z,30.72
2022-08-11T15:17:01.373Z,30.67
2022-08-11T15:19:36.682Z,30.61
2022-08-11T15:22:29.297Z,30.46
2022-08-11T15:24:59.510Z,30.49
2022-08-11T15:27:48.745Z,30.44
2022-08-11T15:30:35.912Z,30.32
2022-08-11T15:33:26.621Z,30.37
2022-08-11T15:36:14.279Z,30.46
2022-08-11T15:38:54.866Z,30.51
2022-08-11T15:41:58.569Z,30.41
2022-08-11T15:45:07.801Z,30.42
2022-08-11T15:47:42.860Z,30.43
2022-08-11T15:50:20.037Z,30.28
2022-08-11T15:52:58.292Z,30.30
2022-08-11T15:55:28.665Z,30.19
2022-08-11T15:58:17.871Z,30.19
2022-08-11T16:01:09.099Z,30.23
2022-08-11T16:04:12.554Z,30.30
2022-08-11T16:07:01.210Z,30.18
2022-08-11T16:09:41.337Z,30.11
2022-08-11T16:12:31.838Z,30.16
2022-08-11T16:15:21.671Z,30.11
2022-08-11T16:17:52.187Z,30.07
2022-08-11T16:20:22.484Z,30.13
2022-08-11T16:23:00.384Z,30.07
2022-08-11T16:27:02.413Z,29.97
2022-08-11T16:28:22.140Z,29.83
2022-08-11T16:30:51.190Z,29.66
2022-08-11T16:33:48.346Z,29.64
2022-08-11T16:36:29.016Z,29.60
2022-08-11T16:38:58.567Z,29.53
2022-08-11T16:41:48.188Z,29.65
2022-08-11T16:44:37.710Z,29.72
2022-08-11T16:47:13.292Z,29.75
2022-08-11T16:49:52.898Z,29.78
2022-08-11T16:52:23.024Z,29.73
2022-08-11T16:54:52.787Z,29.67
2022-08-11T16:57:44.394Z,29.57
2022-08-11T17:00:15.681Z,29.45
2022-08-11T17:03:09.293Z,29.45
2022-08-11T17:06:03.474Z,29.40
2022-08-11T17:09:01.944Z,29.35
2022-08-11T17:11:54.582Z,29.41
2022-08-11T17:14:35.175Z,29.53
2022-08-11T17:17:11.429Z,29.61
2022-08-11T17:20:38.703Z,29.57
2022-08-11T17:22:54.944Z,29.47
2022-08-11T17:25:28.393Z,29.43
2022-08-11T17:27:56.900Z,29.34
2022-08-11T17:30:46.556Z,29.25
2022-08-11T17:33:34.104Z,29.23
2022-08-11T17:36:02.900Z,29.25
2022-08-11T17:38:32.193Z,29.28
2022-08-11T17:41:23.005Z,29.41
2022-08-11T17:44:10.688Z,29.52
2022-08-11T17:47:02.231Z,29.60
2022-08-11T17:49:37.444Z,29.49
2022-08-11T17:52:26.128Z,29.49
2022-08-11T17:55:13.710Z,29.49
2022-08-11T17:58:00.608Z,29.50
2022-08-11T18:00:31.167Z,29.52
2022-08-11T18:03:18.793Z,29.66
2022-08-11T18:05:47.286Z,29.72
2022-08-11T18:08:35.448Z,29.73
2022-08-11T18:12:05.803Z,29.80
2022-08-11T18:14:31.526Z,29.81
2022-08-11T18:17:17.294Z,29.80
2022-08-11T18:20:03.190Z,29.81
2022-08-11T18:22:53.438Z,29.83
2022-08-11T18:25:45.539Z,29.83
2022-08-11T18:28:33.668Z,29.86
2022-08-11T18:31:21.204Z,29.86
2022-08-11T18:34:13.417Z,29.87
2022-08-11T18:37:22.864Z,29.91
2022-08-11T18:40:22.483Z,29.92
2022-08-11T18:43:10.119Z,29.87
2022-08-11T18:46:06.852Z,29.82
2022-08-11T18:49:01.002Z,29.74
2022-08-11T18:51:47.476Z,29.68
2022-08-11T18:54:34.901Z,29.66
2022-08-11T18:57:25.102Z,29.64
2022-08-11T19:00:12.249Z,29.71
2022-08-11T19:02:59.500Z,29.74
2022-08-11T19:06:31.979Z,29.65
2022-08-11T19:09:09.724Z,29.68
2022-08-11T19:11:56.891Z,29.46
2022-08-11T19:14:48.258Z,29.32
2022-08-11T19:17:44.369Z,29.26
2022-08-11T19:20:39.878Z,29.25
2022-08-11T19:23:28.547Z,29.27
2022-08-11T19:26:16.097Z,29.13
2022-08-11T19:29:07.769Z,29.02
2022-08-11T19:31:54.517Z,29.08
2022-08-11T19:34:44.153Z,29.10
2022-08-11T19:37:30.620Z,28.96
2022-08-11T19:40:24.708Z,28.96
2022-08-11T19:43:23.506Z,29.00
2022-08-11T19:46:21.468Z,28.83
2022-08-11T19:49:11.231Z,28.13
2022-08-11T19:51:57.866Z,28.35
2022-08-11T19:54:52.870Z,28.44
2022-08-11T19:57:41.033Z,28.47
2022-08-11T20:00:33.239Z,28.62
2022-08-11T20:03:22.323Z,28.76
2022-08-11T20:06:09.063Z,28.83
2022-08-11T20:08:59.076Z,28.84
2022-08-11T20:11:49.854Z,28.75
2022-08-11T20:14:38.590Z,28.71
2022-08-11T20:17:26.912Z,28.72
2022-08-11T20:20:13.568Z,28.79
2022-08-11T20:23:01.455Z,28.50
2022-08-11T20:25:48.379Z,28.56
2022-08-11T20:28:36.712Z,28.59
2022-08-11T20:31:26.247Z,28.67
2022-08-11T20:34:13.490Z,28.65
2022-08-11T20:37:00.870Z,28.58
2022-08-11T20:39:48.564Z,28.56
2022-08-11T20:42:35.844Z,28.59
2022-08-11T20:45:23.815Z,28.51
2022-08-11T20:48:14.832Z,28.54
2022-08-11T20:51:07.279Z,28.53
2022-08-11T20:54:05.713Z,28.51
2022-08-11T20:56:54.437Z,28.62
2022-08-11T20:59:49.394Z,28.65
2022-08-11T21:02:45.040Z,28.55
2022-08-11T21:08:46.062Z,28.43
2022-08-11T21:11:33.699Z,28.28
2022-08-11T21:14:21.944Z,28.33
2022-08-11T21:17:27.532Z,28.27
2022-08-11T21:20:21.135Z,28.24
2022-08-11T21:23:23.377Z,28.04
2022-08-11T21:26:16.968Z,28.07
2022-08-11T21:29:04.166Z,28.13
2022-08-11T21:31:52.759Z,27.99
2022-08-11T21:34:40.147Z,27.98
2022-08-11T21:37:27.912Z,28.10
2022-08-11T21:40:17.456Z,28.24
2022-08-11T21:43:06.056Z,28.28
2022-08-11T21:45:54.329Z,28.32
2022-08-11T21:48:41.620Z,28.30
2022-08-11T21:51:27.308Z,28.35
2022-08-11T21:54:13.361Z,28.41
2022-08-11T21:56:59.721Z,28.41
2022-08-11T22:00:06.797Z,28.44
2022-08-11T22:02:58.291Z,28.39
2022-08-11T22:05:48.602Z,28.39
2022-08-11T22:08:34.299Z,28.26
2022-08-11T22:11:32.025Z,27.79
2022-08-11T22:14:21.829Z,27.94
2022-08-11T22:17:07.791Z,27.90
2022-08-11T22:19:55.377Z,28.07
2022-08-11T22:22:53.147Z,28.06
2022-08-11T22:25:50.863Z,28.07
2022-08-11T22:28:38.004Z,28.11
2022-08-11T22:31:25.590Z,28.07
2022-08-11T22:34:11.821Z,28.05
2022-08-11T22:36:59.270Z,28.07
2022-08-11T22:39:59.986Z,27.78
2022-08-11T22:42:50.812Z,27.82
2022-08-11T22:45:37.143Z,27.90
2022-08-11T22:48:24.175Z,27.86
2022-08-11T22:51:10.785Z,27.62
2022-08-11T22:53:59.140Z,27.60
2022-08-11T22:56:49.451Z,27.66
2022-08-11T22:59:37.269Z,27.66
2022-08-11T23:02:24.990Z,27.78
2022-08-11T23:05:11.708Z,27.88
2022-08-11T23:07:59.293Z,27.70
2022-08-11T23:10:45.043Z,27.10
2022-08-11T23:13:31.842Z,27.35
2022-08-11T23:16:17.928Z,27.50
2022-08-11T23:19:05.426Z,27.66
2022-08-11T23:21:53.183Z,27.77
2022-08-11T23:24:40.650Z,27.76
2022-08-11T23:27:28.275Z,27.55
2022-08-11T23:30:17.154Z,27.56
2022-08-11T23:33:07.047Z,27.47
2022-08-11T23:35:57.891Z,27.27
2022-08-11T23:38:44.178Z,27.28
2022-08-11T23:41:32.875Z,27.39
2022-08-11T23:44:21.448Z,27.54
2022-08-11T23:47:14.485Z,27.66
2022-08-11T23:50:00.620Z,27.72
2022-08-11T23:52:48.405Z,27.61
2022-08-11T23:55:39.216Z,27.60
2022-08-11T23:58:26.223Z,27.65
